createdAt,value
2023-07-26T00:02:16.777Z,13.10
2023-07-26T00:07:47.655Z,13.10
2023-07-26T00:13:23.245Z,13.10
2023-07-26T00:19:08.172Z,13.10
2023-07-26T00:24:31.191Z,12.90
2023-07-26T00:29:52.768Z,13.00
2023-07-26T00:35:28.953Z,13.00
2023-07-26T00:40:59.246Z,13.00
2023-07-26T00:46:45.555Z,13.00
2023-07-26T00:52:25.863Z,13.00
2023-07-26T00:58:13.313Z,13.00
2023-07-26T01:04:04.883Z,13.00
2023-07-26T01:09:55.080Z,13.00
2023-07-26T01:15:17.752Z,13.00
2023-07-26T01:20:40.699Z,12.80
2023-07-26T01:26:31.195Z,12.90
2023-07-26T01:32:17.010Z,12.80
2023-07-26T01:38:01.131Z,12.90
2023-07-26T01:43:44.866Z,12.90
2023-07-26T01:49:14.319Z,12.90
2023-07-26T01:54:36.518Z,13.00
2023-07-26T01:59:58.891Z,12.90
2023-07-26T02:05:53.136Z,12.80
2023-07-26T02:11:34.136Z,12.70
2023-07-26T02:17:17.340Z,12.80
2023-07-26T02:23:00.686Z,12.90
2023-07-26T02:28:38.263Z,12.80
2023-07-26T02:34:15.541Z,12.70
2023-07-26T02:39:36.791Z,12.70
2023-07-26T02:44:58.384Z,12.60
2023-07-26T02:50:20.104Z,12.60
2023-07-26T02:55:44.621Z,12.60
2023-07-26T03:01:06.627Z,12.50
2023-07-26T03:06:46.021Z,12.70
2023-07-26T03:12:17.884Z,12.80
2023-07-26T03:18:07.729Z,12.80
2023-07-26T03:23:44.442Z,12.70
2023-07-26T03:29:18.480Z,12.60
2023-07-26T03:34:41.089Z,12.70
2023-07-26T03:40:02.668Z,12.60
2023-07-26T03:45:30.534Z,12.60
2023-07-26T03:51:00.165Z,12.60
2023-07-26T03:56:38.816Z,12.50
2023-07-26T04:02:10.853Z,12.50
2023-07-26T04:08:02.486Z,12.50
2023-07-26T04:13:26.534Z,12.40
2023-07-26T04:19:00.506Z,12.30
2023-07-26T04:24:24.604Z,12.50
2023-07-26T04:29:46.318Z,12.30
2023-07-26T04:35:08.010Z,12.30
2023-07-26T04:40:31.069Z,12.40
2023-07-26T04:46:05.770Z,12.40
2023-07-26T04:51:31.606Z,12.40
2023-07-26T04:57:11.048Z,12.40
2023-07-26T05:02:42.232Z,12.60
2023-07-26T05:08:04.110Z,12.60
2023-07-26T05:13:35.503Z,12.60
2023-07-26T05:19:09.315Z,12.60
2023-07-26T05:24:31.690Z,12.50
2023-07-26T05:29:54.582Z,12.60
2023-07-26T05:35:15.912Z,12.60
2023-07-26T05:40:37.072Z,12.80
2023-07-26T05:52:10.313Z,13.10
2023-07-26T05:58:01.471Z,13.10
2023-07-26T06:03:44.433Z,13.30
2023-07-26T06:09:08.889Z,13.10
2023-07-26T06:14:30.709Z,13.20
2023-07-26T06:19:52.315Z,13.30
2023-07-26T06:25:13.997Z,13.40
2023-07-26T06:30:35.578Z,13.30
2023-07-26T06:36:12.898Z,13.30
2023-07-26T06:41:59.926Z,13.40
2023-07-26T06:47:38.310Z,13.70
2023-07-26T06:53:10.556Z,13.90
2023-07-26T06:58:47.016Z,14.10
2023-07-26T07:04:32.235Z,14.30
2023-07-26T07:10:04.623Z,14.20
2023-07-26T07:15:29.515Z,14.50
2023-07-26T07:21:14.856Z,14.70
2023-07-26T07:27:14.337Z,14.60
2023-07-26T07:32:59.694Z,14.60
2023-07-26T07:38:40.363Z,14.70
2023-07-26T07:44:09.075Z,14.80
2023-07-26T07:49:32.492Z,15.10
2023-07-26T07:54:54.075Z,15.30
2023-07-26T08:00:16.468Z,15.30
2023-07-26T08:05:52.277Z,15.30
2023-07-26T08:11:37.813Z,15.20
2023-07-26T08:17:15.896Z,15.30
2023-07-26T08:23:01.400Z,15.10
2023-07-26T08:28:42.252Z,15.50
2023-07-26T08:34:10.313Z,15.80
2023-07-26T08:39:37.193Z,15.80
2023-07-26T08:45:00.688Z,16.20
2023-07-26T08:50:25.265Z,16.50
2023-07-26T08:55:47.067Z,16.40
2023-07-26T09:01:08.754Z,16.40
2023-07-26T09:07:06.366Z,16.70
2023-07-26T09:12:51.146Z,16.70
2023-07-26T09:18:13.791Z,16.60
2023-07-26T09:24:00.984Z,16.20
2023-07-26T09:29:32.272Z,16.40
2023-07-26T09:34:55.471Z,16.70
2023-07-26T09:40:24.727Z,16.50
2023-07-26T09:46:33.454Z,16.30
2023-07-26T09:52:20.529Z,16.30
2023-07-26T09:58:12.769Z,16.10
2023-07-26T10:04:20.314Z,15.90
2023-07-26T10:10:13.935Z,16.30
2023-07-26T10:15:42.783Z,16.80
2023-07-26T10:21:29.587Z,16.80
2023-07-26T10:27:14.031Z,16.70
2023-07-26T10:33:10.671Z,16.70
2023-07-26T10:39:03.890Z,16.70
2023-07-26T10:44:30.553Z,16.80
2023-07-26T10:49:56.701Z,17.10
2023-07-26T10:55:31.083Z,17.10
2023-07-26T11:01:00.652Z,17.00
2023-07-26T11:07:01.501Z,16.90
2023-07-26T11:12:54.452Z,16.30
2023-07-26T11:18:27.317Z,15.70
2023-07-26T11:24:07.842Z,15.60
2023-07-26T11:29:30.299Z,15.50
2023-07-26T11:35:02.985Z,15.70
2023-07-26T11:40:37.082Z,15.80
2023-07-26T11:46:15.208Z,15.90
2023-07-26T11:52:11.688Z,16.20
2023-07-26T11:57:51.460Z,16.60
2023-07-26T12:03:29.238Z,16.60
2023-07-26T12:09:11.302Z,16.50
2023-07-26T12:14:33.124Z,16.50
2023-07-26T12:20:06.261Z,16.30
2023-07-26T12:25:38.417Z,16.10
2023-07-26T12:37:10.066Z,15.70
2023-07-26T12:42:41.963Z,15.70
2023-07-26T12:48:24.799Z,15.50
2023-07-26T12:53:50.750Z,15.50
2023-07-26T12:59:31.255Z,15.50
2023-07-26T13:05:18.078Z,15.60
2023-07-26T13:11:05.061Z,15.80
2023-07-26T13:16:53.880Z,16.10
2023-07-26T13:22:30.153Z,16.60
2023-07-26T13:28:08.118Z,17.20
2023-07-26T13:33:51.021Z,17.60
2023-07-26T13:39:18.627Z,17.50
2023-07-26T13:44:41.665Z,17.90
2023-07-26T13:50:03.625Z,18.40
2023-07-26T13:55:25.023Z,18.70
2023-07-26T14:00:46.567Z,18.70
2023-07-26T14:06:31.627Z,18.60
2023-07-26T14:12:29.511Z,18.50
2023-07-26T14:18:05.508Z,18.30
2023-07-26T14:23:52.234Z,18.70
2023-07-26T14:29:19.400Z,18.60
2023-07-26T14:34:41.004Z,18.90
2023-07-26T14:40:02.680Z,19.20
2023-07-26T14:45:24.276Z,18.90
2023-07-26T14:50:45.827Z,18.60
2023-07-26T14:56:33.602Z,18.90
2023-07-26T15:02:18.389Z,19.10
2023-07-26T15:07:50.816Z,19.10
2023-07-26T15:13:13.046Z,19.50
2023-07-26T15:18:55.021Z,19.20
2023-07-26T15:24:25.779Z,18.90
2023-07-26T15:29:48.817Z,19.40
2023-07-26T15:35:14.581Z,19.10
2023-07-26T15:46:41.445Z,18.90
2023-07-26T15:52:30.847Z,18.70
2023-07-26T15:58:09.471Z,18.60
2023-07-26T16:09:44.940Z,18.60
2023-07-26T16:20:38.037Z,19.20
2023-07-26T16:31:58.046Z,19.00
2023-07-26T16:37:34.148Z,18.60
2023-07-26T16:43:18.473Z,18.50
2023-07-26T16:48:56.814Z,18.50
2023-07-26T16:54:25.035Z,18.40
2023-07-26T16:59:48.298Z,18.60
2023-07-26T17:05:19.187Z,18.90
2023-07-26T17:10:46.772Z,19.10
2023-07-26T17:16:38.473Z,19.20
2023-07-26T17:22:26.831Z,19.20
2023-07-26T17:28:21.216Z,19.00
2023-07-26T17:33:43.961Z,18.60
2023-07-26T17:39:18.204Z,18.60
2023-07-26T17:44:41.303Z,18.70
2023-07-26T17:50:02.839Z,18.50
2023-07-26T17:55:24.810Z,18.50
2023-07-26T18:00:46.170Z,18.10
2023-07-26T18:06:42.160Z,17.90
2023-07-26T18:12:23.694Z,17.80
2023-07-26T18:18:07.737Z,17.90
2023-07-26T18:23:53.325Z,17.90
2023-07-26T18:29:23.281Z,17.80
2023-07-26T18:34:45.255Z,17.60
2023-07-26T18:40:07.731Z,17.40
2023-07-26T18:45:29.112Z,17.10
2023-07-26T18:51:03.437Z,17.00
2023-07-26T18:56:38.841Z,16.80
2023-07-26T19:02:12.019Z,16.60
2023-07-26T19:07:43.972Z,16.50
2023-07-26T19:13:33.515Z,16.10
2023-07-26T19:19:13.608Z,15.80
2023-07-26T19:24:36.076Z,15.80
2023-07-26T19:29:57.673Z,15.40
2023-07-26T19:35:19.189Z,15.40
2023-07-26T19:40:40.760Z,15.30
2023-07-26T19:52:11.064Z,15.30
2023-07-26T19:57:57.257Z,15.10
2023-07-26T20:03:42.460Z,15.10
2023-07-26T20:09:08.705Z,15.00
2023-07-26T20:14:36.970Z,14.90
2023-07-26T20:20:00.375Z,14.90
2023-07-26T20:25:23.266Z,14.90
2023-07-26T20:30:44.639Z,14.70
2023-07-26T20:36:35.234Z,14.60
2023-07-26T20:41:57.667Z,14.40
2023-07-26T20:47:35.152Z,14.40
2023-07-26T20:53:19.007Z,14.30
2023-07-26T20:59:01.406Z,14.30
2023-07-26T21:04:32.918Z,14.20
2023-07-26T21:09:54.162Z,14.10
2023-07-26T21:15:15.829Z,14.10
2023-07-26T21:20:37.295Z,14.00
2023-07-26T21:26:12.058Z,13.80
2023-07-26T21:31:59.136Z,13.90
2023-07-26T21:37:39.067Z,13.90
2023-07-26T21:43:11.387Z,13.90
2023-07-26T21:48:52.549Z,14.00
2023-07-26T21:54:22.400Z,14.00
2023-07-26T21:59:44.213Z,14.10
2023-07-26T22:05:18.696Z,14.00
2023-07-26T22:10:55.445Z,14.00
2023-07-26T22:16:38.833Z,14.00
2023-07-26T22:22:27.162Z,13.90
2023-07-26T22:28:09.539Z,13.70
2023-07-26T22:33:51.564Z,13.70
2023-07-26T22:39:19.616Z,13.60
2023-07-26T22:44:42.667Z,13.50
2023-07-26T22:50:04.490Z,13.50
2023-07-26T22:55:29.141Z,13.40
2023-07-26T23:00:51.210Z,13.30
2023-07-26T23:06:37.608Z,13.20
2023-07-26T23:12:17.565Z,13.10
2023-07-26T23:18:09.121Z,13.10
2023-07-26T23:23:49.742Z,13.00
2023-07-26T23:29:19.678Z,13.00
2023-07-26T23:34:44.387Z,12.90
2023-07-26T23:40:06.592Z,12.90
2023-07-26T23:45:30.296Z,12.80
2023-07-26T23:51:33.530Z,12.70
2023-07-26T23:57:12.840Z,12.70
